• Join FlightAware (Why Join?)
  • Login
  • US Flag 
11:20PM EDT


 

Airport Tracker/Info


-or-


 

Live Flight TrackerFlight Track Log ✈ N776KR ✈ 12-May-2013 ✈ KDAL - KIWS

Flight Track Log - Related Links

Times and Time Zones

All times are in EDT time to prevent confusion due to time zone crossing. See the N776KR flight status page for this flight to view local times or setup timezone preferences in your user account.

Time Position Orientation Groundspeed Altitude Reporting Facility
EDT Latitude Longitude Course Direction KTS MPH feet Rate Location/Type
09:51PM 32.5153 -96.8506 163° South 156 180 5,200  Level Houston Center
09:52PM 32.4981 -96.8444 163° South 168 193 5,300 540 Climbing Fort Worth Center
09:53PM 32.4561 -96.8250 159° South 173 199 5,900 540 Climbing Fort Worth Center
09:54PM 32.4164 -96.8081 160° South 167 192 6,400 540 Climbing Fort Worth Center
09:55PM 32.3683 -96.7836 157° South 175 201 7,000 480 Climbing Fort Worth Center
09:56PM 32.3286 -96.7667 160° South 170 196 7,400 240 Climbing Fort Worth Center
09:57PM 32.2742 -96.7425 159° South 180 207 7,500  Climbing Fort Worth Center
09:58PM 32.2344 -96.7233 158° South 192 221 7,500  Level Fort Worth Center
09:59PM 32.1781 -96.7017 162° South 192 221 7,500  Level Fort Worth Center
10:00PM 32.1278 -96.6750 156° South 187 215 7,500  Level Fort Worth Center
10:01PM 32.0733 -96.6558 163° South 187 215 7,500  Level Fort Worth Center
10:02PM 32.0250 -96.6317 157° South 187 215 7,500  Level Fort Worth Center
10:03PM 31.9750 -96.6100 160° South 192 221 7,500  Level Fort Worth Center
10:04PM 31.9247 -96.5861 158° South 187 215 7,500  Level Fort Worth Center
10:05PM 31.8786 -96.5669 161° South 187 215 7,500  Level Fort Worth Center
10:06PM 31.8283 -96.5453 160° South 187 215 7,500  Level Fort Worth Center
10:07PM 31.7800 -96.5214 157° South 187 215 7,500  Level Fort Worth Center
10:09PM 31.6822 -96.4761 158° South 189 217 7,500  Level Houston Center
10:10PM 31.6322 -96.4547 160° South 190 219 7,500  Level Houston Center
10:11PM 31.5825 -96.4328 159° South 188 216 7,500  Level Houston Center
10:12PM 31.5333 -96.4103 159° South 188 216 7,500  Level Houston Center
10:13PM 31.4850 -96.3878 158° South 186 214 7,500  Level Houston Center
10:14PM 31.4342 -96.3667 160° South 190 219 7,500  Level Houston Center
10:15PM 31.3850 -96.3450 159° South 188 216 7,500  Level Houston Center
10:16PM 31.3344 -96.3222 159° South 192 221 7,500  Level Houston Center
10:17PM 31.2900 -96.3047 161° South 190 219 7,500  Level Houston Center
10:18PM 31.2356 -96.2792 158° South 190 219 7,500  Level Houston Center
10:19PM 31.1792 -96.2564 161° South 187 215 7,500  Level Houston Center
10:20PM 31.1419 -96.2386 158° South 185 213 7,500  Level Houston Center
10:21PM 31.0869 -96.2136 159° South 185 213 7,500  Level Houston Center
10:22PM 31.0439 -96.1961 161° South 186 214 7,500  Level Houston Center
10:23PM 30.9919 -96.1753 161° South 187 215 7,500  Level Houston Center
10:24PM 30.9461 -96.1536 158° South 186 214 7,500  Level Houston Center
10:24PM 30.9389 -96.1494 154° Southeast 185 213 7,500  Level Houston Center
10:25PM 30.8939 -96.1328 162° South 187 215 7,500  Level Houston Center
10:25PM 30.8897 -96.1286 139° Southeast 185 213 7,500  Level Houston Center
10:26PM 30.8525 -96.1131 160° South 185 213 7,500  Level Houston Center
10:26PM 30.8397 -96.1058 154° Southeast 189 217 7,500  Level Houston Center
10:27PM 30.7981 -96.0903 162° South 187 215 7,500  Level Houston Center
10:27PM 30.7903 -96.0867 158° South 188 216 7,500  Level Houston Center
10:28PM 30.7500 -96.0689 159° South 188 216 7,500  Level Houston Center
10:28PM 30.7419 -96.0642 153° Southeast 186 214 7,500  Level Houston Center
10:29PM 30.6933 -96.0439 160° South 188 216 7,500  Level Houston Center
10:30PM 30.6478 -96.0247 160° South 188 216 7,500  Level Houston Center
10:30PM 30.6433 -96.0219 152° Southeast 186 214 7,500  Level Houston Center
10:31PM 30.5933 -96.0019 161° South 186 214 7,500  Level Houston Center
10:32PM 30.5497 -95.9828 159° South 188 216 7,500 -120 Level Houston Center
10:32PM 30.5356 -95.9756 156° South 187 215 7,400 -240 Descending Houston Center
10:33PM 30.5061 -95.9636 161° South 185 213 7,300 -240 Descending Houston Center
10:33PM 30.4875 -95.9550 158° South 186 214 7,200 -300 Descending Houston Center
10:34PM 30.4517 -95.9406 161° South 184 212 7,000 -300 Descending Houston Center
10:34PM 30.4392 -95.9339 155° Southeast 186 214 6,900 -480 Descending Houston Center
10:35PM 30.4078 -95.9214 161° South 192 221 6,600 -540 Descending Houston Center
10:35PM 30.3892 -95.9131 159° South 190 219 6,400 -480 Descending Houston Center
10:36PM 30.3403 -95.8931 161° South 190 219 6,000 -480 Descending Houston Center
10:37PM 30.2967 -95.8739 159° South 188 216 5,600 -480 Descending Houston Center
10:38PM 30.2511 -95.8550 160° South 186 214 5,200 -420 Descending Houston Center
10:38PM 30.2417 -95.8511 160° South 186 214 5,100 -600 Descending Houston Center
10:39PM 30.2053 -95.8361 160° South 186 214 4,700 -540 Descending Houston Center
10:39PM 30.1942 -95.8306 157° South 184 212 4,600 -480 Descending Houston Center
10:40PM 30.1528 -95.8133 160° South 182 209 4,200 -540 Descending Houston Center
10:40PM 30.1461 -95.8103 158° South 184 212 4,100 -540 Descending Houston Center
10:41PM 30.1050 -95.7922 159° South 181 208 3,700 -540 Descending Houston Center
10:41PM 30.0981 -95.7894 161° South 184 212 3,600 -540 Descending Houston Center
10:42PM 30.0569 -95.7736 162° South 178 205 3,200 -540 Descending Houston Center
10:42PM 30.0508 -95.7697 151° Southeast 182 209 3,100 -240 Descending Houston Center
10:43PM 29.9986 -95.7472 160° South 176 203 2,900 -240 Descending Houston Center